createdAt,value
2017-01-04T00:00:37.700Z,90.96
2017-01-04T00:01:37.688Z,91.44
2017-01-04T00:02:37.681Z,91.01
2017-01-04T00:03:37.685Z,90.92
2017-01-04T00:04:37.681Z,91.01
2017-01-04T00:05:37.677Z,90.92
2017-01-04T00:06:37.669Z,90.64
2017-01-04T00:07:37.660Z,90.45
2017-01-04T00:08:37.661Z,90.92
2017-01-04T00:09:37.652Z,91.11
2017-01-04T00:10:37.649Z,91.49
2017-01-04T00:11:37.237Z,91.3
2017-01-04T00:12:37.225Z,91.77
2017-01-04T00:13:37.221Z,91.49
2017-01-04T00:14:37.625Z,91.39
2017-01-04T00:15:37.633Z,92.24
2017-01-04T00:16:37.629Z,92.05
2017-01-04T00:17:37.617Z,91.86
2017-01-04T00:18:37.623Z,91.96
2017-01-04T00:19:37.614Z,92.05
2017-01-04T00:20:37.610Z,92.05
2017-01-04T00:21:37.197Z,91.96
2017-01-04T00:22:37.186Z,92.61
2017-01-04T00:23:37.185Z,92.24
2017-01-04T00:24:37.585Z,92.61
2017-01-04T00:25:37.585Z,92.24
2017-01-04T00:26:37.582Z,92.24
2017-01-04T00:27:37.574Z,92.33
2017-01-04T00:28:37.582Z,92.43
2017-01-04T00:29:37.570Z,92.52
2017-01-04T00:30:37.566Z,92.33
2017-01-04T00:31:37.146Z,92.52
2017-01-04T00:32:37.558Z,92.33
2017-01-04T00:33:37.546Z,92.33
2017-01-04T00:34:37.138Z,92.14
2017-01-04T00:35:37.538Z,92.33
2017-01-04T00:36:37.538Z,92.14
2017-01-04T00:37:37.538Z,92.43
2017-01-04T00:38:37.526Z,92.33
2017-01-04T00:39:37.526Z,93.09
2017-01-04T00:40:37.518Z,93.09
2017-01-04T00:41:37.519Z,92.52
2017-01-04T00:42:37.510Z,92.71
2017-01-04T00:43:37.503Z,92.8
2017-01-04T00:44:37.499Z,92.71
2017-01-04T00:45:37.491Z,92.71
2017-01-04T00:46:37.083Z,93.09
2017-01-04T00:47:37.079Z,93.09
2017-01-04T00:48:37.493Z,93.09
2017-01-04T00:49:37.487Z,92.8
2017-01-04T00:50:37.483Z,92.99
2017-01-04T00:51:37.475Z,93.09
2017-01-04T00:52:37.055Z,92.99
2017-01-04T00:53:37.459Z,93.09
2017-01-04T00:54:37.051Z,92.99
2017-01-04T00:55:37.460Z,92.99
2017-01-04T00:56:37.456Z,92.71
2017-01-04T00:57:37.447Z,92.8
2017-01-04T00:58:37.444Z,92.8
2017-01-04T00:59:37.039Z,92.71
2017-01-04T01:00:37.024Z,93.28
2017-01-04T01:01:37.425Z,92.8
2017-01-04T01:02:37.424Z,92.71
2017-01-04T01:03:37.420Z,92.71
2017-01-04T01:04:37.416Z,92.9
2017-01-04T01:05:37.000Z,93.37
2017-01-04T01:06:37.401Z,92.71
2017-01-04T01:07:37.421Z,92.71
2017-01-04T01:08:37.404Z,92.71
2017-01-04T01:09:37.389Z,92.76
2017-01-04T01:10:37.381Z,92.9
2017-01-04T01:11:36.981Z,92.94
2017-01-04T01:12:37.381Z,93.09
2017-01-04T01:13:36.973Z,93.23
2017-01-04T01:14:37.369Z,92.66
2017-01-04T01:15:37.369Z,92.24
2017-01-04T01:16:36.953Z,92.43
2017-01-04T01:17:36.949Z,92.43
2017-01-04T01:18:37.361Z,92.71
2017-01-04T01:19:37.361Z,92.14
2017-01-04T01:20:37.349Z,91.96
2017-01-04T01:21:37.338Z,92.33
2017-01-04T01:22:37.330Z,92.24
2017-01-04T01:23:37.338Z,92.24
2017-01-04T01:24:37.330Z,92.24
2017-01-04T01:25:37.326Z,92.52
2017-01-04T01:26:37.326Z,92.24
2017-01-04T01:27:37.314Z,92.33
2017-01-04T01:28:36.902Z,92.24
2017-01-04T01:29:36.898Z,92.33
2017-01-04T01:30:37.306Z,92.33
2017-01-04T01:31:36.890Z,92.05
2017-01-04T01:32:36.890Z,91.77
2017-01-04T01:33:37.290Z,91.96
2017-01-04T01:34:37.290Z,92.43
2017-01-04T01:35:37.286Z,92.05
2017-01-04T01:36:37.275Z,91.86
2017-01-04T01:37:37.270Z,91.96
2017-01-04T01:38:37.262Z,91.67
2017-01-04T01:39:37.259Z,92.43
2017-01-04T01:40:37.259Z,92.43
2017-01-04T01:41:36.848Z,92.33
2017-01-04T01:42:37.255Z,92.71
2017-01-04T01:43:37.243Z,92.33
2017-01-04T01:44:37.239Z,92.52
2017-01-04T01:45:37.239Z,92.33
2017-01-04T01:46:37.223Z,92.14
2017-01-04T01:47:36.811Z,92.33
2017-01-04T01:48:37.219Z,92.61
2017-01-04T01:49:37.223Z,92.24
2017-01-04T01:50:37.215Z,92.33
2017-01-04T01:51:37.211Z,92.38
2017-01-04T01:52:37.211Z,92.33
2017-01-04T01:53:36.791Z,92.61
2017-01-04T01:54:36.787Z,92.38
2017-01-04T01:55:36.779Z,92.29
2017-01-04T01:56:37.191Z,92.38
2017-01-04T01:57:37.187Z,92.33
2017-01-04T01:58:36.767Z,92.57
2017-01-04T01:59:37.168Z,92.29
2017-01-04T02:00:37.171Z,92.38
2017-01-04T02:01:37.168Z,92.29
2017-01-04T02:02:37.160Z,92.38
2017-01-04T02:03:37.160Z,92.38
2017-01-04T02:04:36.736Z,92.76
2017-01-04T02:05:36.733Z,92.19
2017-01-04T02:06:36.740Z,92.57
2017-01-04T02:07:37.140Z,92.38
2017-01-04T02:08:37.132Z,92.38
2017-01-04T02:09:37.128Z,92.29
2017-01-04T02:10:37.132Z,92.29
2017-01-04T02:11:36.712Z,92.47
2017-01-04T02:12:37.120Z,92.66
2017-01-04T02:13:37.117Z,92.47
2017-01-04T02:14:37.112Z,91.91
2017-01-04T02:15:37.100Z,92.38
2017-01-04T02:16:36.685Z,92.1
2017-01-04T02:17:37.100Z,91.72
2017-01-04T02:18:37.089Z,92
2017-01-04T02:19:37.085Z,92
2017-01-04T02:20:37.088Z,92.1
2017-01-04T02:21:37.077Z,92.38
2017-01-04T02:22:37.081Z,92
2017-01-04T02:23:37.076Z,92.1
2017-01-04T02:24:36.661Z,92.19
2017-01-04T02:25:37.069Z,92
2017-01-04T02:26:37.053Z,92.29
2017-01-04T02:27:37.053Z,92.19
2017-01-04T02:28:37.046Z,91.63
2017-01-04T02:29:36.637Z,91.91
2017-01-04T02:30:36.625Z,91.72
2017-01-04T02:31:36.629Z,92.29
2017-01-04T02:32:37.029Z,92
2017-01-04T02:33:37.025Z,91.72
2017-01-04T02:34:36.613Z,92
2017-01-04T02:35:36.601Z,92
2017-01-04T02:36:36.601Z,92.38
2017-01-04T02:37:36.593Z,91.91
2017-01-04T02:38:37.006Z,91.82
2017-01-04T02:39:37.005Z,92
2017-01-04T02:40:36.993Z,91.82
2017-01-04T02:41:36.997Z,91.53
2017-01-04T02:42:36.994Z,92.38
2017-01-04T02:43:36.577Z,92.1
2017-01-04T02:44:36.981Z,91.25
2017-01-04T02:45:36.970Z,91.53
2017-01-04T02:46:36.966Z,91.63
2017-01-04T02:47:36.969Z,91.34
2017-01-04T02:48:36.554Z,91.72
2017-01-04T02:49:36.958Z,91.63
2017-01-04T02:50:36.954Z,91.82
2017-01-04T02:51:36.950Z,91.25
2017-01-04T02:52:36.949Z,91.44
2017-01-04T02:53:36.938Z,91.34
2017-01-04T02:54:36.522Z,91.44
2017-01-04T02:55:36.926Z,91.58
2017-01-04T02:56:36.930Z,91.29
2017-01-04T02:57:36.922Z,91.67
2017-01-04T02:58:36.922Z,91.86
2017-01-04T02:59:36.914Z,91.2
2017-01-04T03:00:36.914Z,91.1
2017-01-04T03:01:36.902Z,91.58
2017-01-04T03:02:36.898Z,91.29
2017-01-04T03:03:36.898Z,91.86
2017-01-04T03:04:36.891Z,90.91
2017-01-04T03:05:36.883Z,90.82
2017-01-04T03:06:36.887Z,90.91
2017-01-04T03:07:37.059Z,90.91
2017-01-04T03:08:36.463Z,91.01
2017-01-04T03:09:36.455Z,91.01
2017-01-04T03:10:36.871Z,91.01
2017-01-04T03:11:36.863Z,90.73
2017-01-04T03:12:36.859Z,91.29
2017-01-04T03:13:36.855Z,91.01
2017-01-04T03:14:36.848Z,91.39
2017-01-04T03:15:36.847Z,91.2
2017-01-04T03:16:36.431Z,91.1
2017-01-04T03:17:36.835Z,90.82
2017-01-04T03:18:36.831Z,90.63
2017-01-04T03:19:36.823Z,90.63
2017-01-04T03:20:36.823Z,91.01
2017-01-04T03:21:36.824Z,90.73
2017-01-04T03:22:36.811Z,90.91
2017-01-04T03:23:36.399Z,90.82
2017-01-04T03:24:36.395Z,90.54
2017-01-04T03:25:36.800Z,90.25
2017-01-04T03:26:36.796Z,90.73
2017-01-04T03:27:36.828Z,90.25
2017-01-04T03:28:36.788Z,90.35
2017-01-04T03:29:36.380Z,90.16
2017-01-04T03:30:36.784Z,89.69
2017-01-04T03:31:36.780Z,90.35
2017-01-04T03:32:36.356Z,90.06
2017-01-04T03:33:36.768Z,90.25
2017-01-04T03:34:36.756Z,90.16
2017-01-04T03:35:36.760Z,90.06
2017-01-04T03:36:36.753Z,89.78
2017-01-04T03:37:36.749Z,89.5
2017-01-04T03:38:36.744Z,89.5
2017-01-04T03:39:36.741Z,89.4
2017-01-04T03:40:36.740Z,89.12
2017-01-04T03:41:36.321Z,89.12
2017-01-04T03:42:36.316Z,89.12
2017-01-04T03:43:36.713Z,89.31
2017-01-04T03:44:36.713Z,89.12
2017-01-04T03:45:36.713Z,89.03
2017-01-04T03:46:36.713Z,88.74
2017-01-04T03:47:36.701Z,89.03
2017-01-04T03:48:36.693Z,89.31
2017-01-04T03:49:36.697Z,89.12
2017-01-04T03:50:36.697Z,89.12
2017-01-04T03:51:36.281Z,88.93
2017-01-04T03:52:36.273Z,89.03
2017-01-04T03:53:36.685Z,89.31
2017-01-04T03:54:36.701Z,89.03
2017-01-04T03:55:36.669Z,89.03
2017-01-04T03:56:36.673Z,89.59
2017-01-04T03:57:36.657Z,88.65
2017-01-04T03:58:36.661Z,88.74
2017-01-04T03:59:36.657Z,88.93
2017-01-04T04:00:36.239Z,88.65
2017-01-04T04:01:36.230Z,88.65
2017-01-04T04:02:36.645Z,88.84
2017-01-04T04:03:36.638Z,88.27
2017-01-04T04:04:36.638Z,88.46
2017-01-04T04:05:36.630Z,88.08
2017-01-04T04:06:36.618Z,88.36
2017-01-04T04:07:36.622Z,88.17
2017-01-04T04:08:36.610Z,87.89
2017-01-04T04:09:36.198Z,87.89
2017-01-04T04:10:36.194Z,87.98
2017-01-04T04:11:36.602Z,87.32
2017-01-04T04:12:36.594Z,87.61
2017-01-04T04:13:36.594Z,87.51
2017-01-04T04:14:36.586Z,87.13
2017-01-04T04:15:36.582Z,87.13
2017-01-04T04:16:36.570Z,87.04
2017-01-04T04:17:36.578Z,86.85
2017-01-04T04:18:36.567Z,86.94
2017-01-04T04:19:36.566Z,86.85
2017-01-04T04:20:36.155Z,86.47
2017-01-04T04:21:36.143Z,86.85
2017-01-04T04:22:36.147Z,86.66
2017-01-04T04:23:36.551Z,86.76
2017-01-04T04:24:36.543Z,86.38
2017-01-04T04:25:36.542Z,86.29
2017-01-04T04:26:36.543Z,86.57
2017-01-04T04:27:36.535Z,86.38
2017-01-04T04:28:36.523Z,86.19
2017-01-04T04:29:36.522Z,86.66
2017-01-04T04:30:36.107Z,86.76
2017-01-04T04:31:36.107Z,86.57
2017-01-04T04:32:36.099Z,86.1
2017-01-04T04:33:36.511Z,85.62
2017-01-04T04:34:36.103Z,86
2017-01-04T04:35:36.500Z,86
2017-01-04T04:36:36.087Z,85.91
2017-01-04T04:37:36.491Z,86.19
2017-01-04T04:38:36.487Z,86.19
2017-01-04T04:39:36.079Z,86.19
2017-01-04T04:40:36.483Z,85.91
2017-01-04T04:41:36.475Z,85.81
2017-01-04T04:42:36.464Z,85.81
2017-01-04T04:43:36.055Z,85.62
2017-01-04T04:44:36.052Z,85.81
2017-01-04T04:45:36.455Z,86
2017-01-04T04:46:36.444Z,85.81
2017-01-04T04:47:36.444Z,85.72
2017-01-04T04:48:36.036Z,85.81
2017-01-04T04:49:36.436Z,85.81
2017-01-04T04:50:36.432Z,85.91
2017-01-04T04:51:36.432Z,85.62
2017-01-04T04:52:36.012Z,85.91
2017-01-04T04:53:36.416Z,86
2017-01-04T04:54:36.004Z,85.43
2017-01-04T04:55:36.412Z,85.81
2017-01-04T04:56:36.408Z,85.43
2017-01-04T04:57:36.396Z,85.62
2017-01-04T04:58:35.992Z,86.29
2017-01-04T04:59:35.988Z,85.53
2017-01-04T05:00:35.980Z,85.43
2017-01-04T05:01:36.388Z,85.53
2017-01-04T05:02:36.386Z,85.43
2017-01-04T05:03:36.376Z,85.62
2017-01-04T05:04:36.373Z,85.53
2017-01-04T05:05:36.368Z,85.62
2017-01-04T05:06:36.360Z,85.91
2017-01-04T05:07:36.364Z,85.81
2017-01-04T05:08:36.360Z,85.43
2017-01-04T05:09:36.349Z,84.96
2017-01-04T05:10:36.352Z,85.43
2017-01-04T05:11:36.349Z,84.96
2017-01-04T05:12:35.933Z,84.96
2017-01-04T05:13:35.924Z,84.96
2017-01-04T05:14:36.332Z,85.05
2017-01-04T05:15:36.324Z,85.15
2017-01-04T05:16:36.321Z,85.62
2017-01-04T05:17:36.317Z,85.43
2017-01-04T05:18:36.314Z,85.05
2017-01-04T05:19:36.313Z,84.96
2017-01-04T05:20:36.300Z,85.05
2017-01-04T05:21:36.297Z,84.68
2017-01-04T05:22:36.293Z,84.49
2017-01-04T05:23:36.297Z,84.77
2017-01-04T05:24:36.289Z,84.3
2017-01-04T05:25:36.281Z,83.92
2017-01-04T05:26:35.869Z,83.64
2017-01-04T05:27:35.865Z,83.07
2017-01-04T05:28:35.857Z,83.73
2017-01-04T05:29:35.857Z,83.54
2017-01-04T05:30:36.257Z,83.07
2017-01-04T05:31:36.249Z,82.88
2017-01-04T05:32:36.253Z,82.45
2017-01-04T05:33:36.246Z,82.73
2017-01-04T05:34:36.245Z,82.64
2017-01-04T05:35:36.261Z,83.02
2017-01-04T05:36:36.237Z,82.73
2017-01-04T05:37:36.237Z,82.45
2017-01-04T05:38:36.229Z,81.7
2017-01-04T05:39:36.225Z,81.41
2017-01-04T05:40:36.217Z,81.03
2017-01-04T05:41:36.209Z,80.94
2017-01-04T05:42:35.797Z,80.94
2017-01-04T05:43:35.797Z,80.65
2017-01-04T05:44:35.792Z,80.94
2017-01-04T05:45:35.788Z,80.84
2017-01-04T05:46:35.784Z,81.03
2017-01-04T05:47:35.780Z,80.75
2017-01-04T05:48:35.772Z,80.65
2017-01-04T05:49:36.184Z,81.32
2017-01-04T05:50:36.179Z,81.6
2017-01-04T05:51:36.176Z,81.88
2017-01-04T05:52:36.171Z,82.26
2017-01-04T05:53:36.163Z,82.5
2017-01-04T05:54:36.159Z,83.45
2017-01-04T05:55:36.152Z,83.64
2017-01-04T05:56:36.143Z,84.2
2017-01-04T05:57:36.150Z,84.77
2017-01-04T05:58:36.144Z,85.05
2017-01-04T05:59:36.139Z,85.81
2017-01-04T06:00:36.127Z,85.81
2017-01-04T06:01:36.131Z,86
2017-01-04T06:02:36.126Z,86.66
2017-01-04T06:03:36.119Z,86.66
2017-01-04T06:04:36.115Z,87.04
2017-01-04T06:05:35.694Z,87.51
2017-01-04T06:06:35.690Z,88.17
2017-01-04T06:07:35.682Z,89.31
2017-01-04T06:08:35.686Z,88.93
2017-01-04T06:09:36.093Z,89.78
2017-01-04T06:10:35.670Z,89.97
2017-01-04T06:11:35.674Z,91.2
2017-01-04T06:12:35.670Z,91.2
2017-01-04T06:13:35.666Z,91.1
2017-01-04T06:14:35.657Z,91.2
2017-01-04T06:15:35.654Z,91.39
2017-01-04T06:16:35.655Z,91.53
2017-01-04T06:17:36.061Z,91.67
2017-01-04T06:18:35.637Z,91.96
2017-01-04T06:19:35.637Z,92.14
2017-01-04T06:20:36.041Z,91.96
2017-01-04T06:21:36.037Z,92.05
2017-01-04T06:22:36.029Z,91.96
2017-01-04T06:23:36.033Z,92.1
2017-01-04T06:24:36.028Z,92.43
2017-01-04T06:25:36.021Z,92.33
2017-01-04T06:26:36.013Z,92.52
2017-01-04T06:27:36.009Z,92.24
2017-01-04T06:28:36.012Z,93.28
2017-01-04T06:29:36.000Z,92.99
2017-01-04T06:30:36.005Z,92.99
2017-01-04T06:31:36.000Z,92.9
2017-01-04T06:32:35.992Z,92.8
2017-01-04T06:33:35.984Z,93.09
2017-01-04T06:34:35.976Z,93.18
2017-01-04T06:35:35.973Z,93.18
2017-01-04T06:36:35.968Z,93.09
2017-01-04T06:37:35.968Z,93.47
2017-01-04T06:38:35.972Z,93.18
2017-01-04T06:39:35.964Z,93.09
2017-01-04T06:40:35.960Z,93.94
2017-01-04T06:41:36.056Z,92.99
2017-01-04T06:42:35.948Z,93.66
2017-01-04T06:43:35.945Z,94.03
2017-01-04T06:44:35.531Z,93.47
2017-01-04T06:45:35.931Z,93.56
2017-01-04T06:46:35.516Z,93.75
2017-01-04T06:47:35.516Z,93.28
2017-01-04T06:48:35.920Z,93.94
2017-01-04T06:49:35.500Z,93.28
2017-01-04T06:50:35.911Z,93.75
2017-01-04T06:51:35.899Z,93.28
2017-01-04T06:52:35.899Z,93.94
2017-01-04T06:53:35.903Z,94.03
2017-01-04T06:54:35.887Z,94.03
2017-01-04T06:55:35.899Z,94.03
2017-01-04T06:56:35.887Z,94.03
2017-01-04T06:57:35.879Z,94.03
2017-01-04T06:58:35.879Z,93.94
2017-01-04T06:59:35.871Z,93.84
2017-01-04T07:00:35.871Z,93.94
2017-01-04T07:01:35.859Z,94.13
2017-01-04T07:02:35.855Z,94.03
2017-01-04T07:03:35.855Z,94.03
2017-01-04T07:04:35.846Z,93.94
2017-01-04T07:05:35.850Z,93.94
2017-01-04T07:06:35.838Z,93.94
2017-01-04T07:07:35.429Z,93.84
2017-01-04T07:08:35.425Z,93.84
2017-01-04T07:09:35.833Z,93.84
2017-01-04T07:10:35.825Z,93.84
2017-01-04T07:11:35.409Z,93.94
2017-01-04T07:12:35.409Z,93.94
2017-01-04T07:13:35.813Z,93.84
2017-01-04T07:14:35.804Z,93.94
2017-01-04T07:15:35.388Z,93.84
2017-01-04T07:16:35.788Z,93.84
2017-01-04T07:17:35.384Z,93.66
2017-01-04T07:18:35.791Z,93.66
2017-01-04T07:19:35.775Z,94.03
2017-01-04T07:20:35.779Z,93.47
2017-01-04T07:21:35.803Z,93.56
2017-01-04T07:22:35.767Z,93.84
2017-01-04T07:23:35.763Z,94.13
2017-01-04T07:24:35.758Z,93.75
2017-01-04T07:25:35.755Z,93.56
2017-01-04T07:26:35.755Z,93.66
2017-01-04T07:27:35.754Z,93.84
2017-01-04T07:28:35.742Z,93.66
2017-01-04T07:29:35.738Z,93.75
2017-01-04T07:30:35.739Z,93.94
2017-01-04T07:31:35.726Z,94.32
2017-01-04T07:32:35.717Z,93.84
2017-01-04T07:33:35.717Z,93.28
2017-01-04T07:34:35.721Z,93.56
2017-01-04T07:35:35.717Z,93.75
2017-01-04T07:36:35.716Z,93.28
2017-01-04T07:37:35.704Z,93.66
2017-01-04T07:38:35.704Z,93.94
2017-01-04T07:39:35.696Z,93.94
2017-01-04T07:40:35.688Z,93.75
2017-01-04T07:41:35.683Z,93.56
2017-01-04T07:42:35.679Z,93.84
2017-01-04T07:43:35.679Z,93.75
2017-01-04T07:44:35.672Z,93.66
2017-01-04T07:45:35.666Z,93.66
2017-01-04T07:46:35.666Z,93.75
2017-01-04T07:47:35.654Z,94.13
2017-01-04T07:48:35.650Z,93.09
2017-01-04T07:49:35.641Z,93.84
2017-01-04T07:50:35.649Z,94.03
2017-01-04T07:51:35.637Z,93.99
2017-01-04T07:52:35.637Z,94.27
2017-01-04T07:53:35.633Z,94.18
2017-01-04T07:54:35.628Z,93.32
2017-01-04T07:55:35.620Z,93.32
2017-01-04T07:56:35.616Z,93.32
2017-01-04T07:57:35.608Z,93.61
2017-01-04T07:58:35.607Z,93.7
2017-01-04T07:59:35.607Z,93.7
2017-01-04T08:00:35.599Z,93.7
2017-01-04T08:01:35.591Z,93.8
2017-01-04T08:02:35.591Z,93.61
2017-01-04T08:03:35.591Z,93.7
2017-01-04T08:04:35.582Z,93.8
2017-01-04T08:05:35.174Z,93.42
2017-01-04T08:06:35.570Z,93.32
2017-01-04T08:07:35.565Z,93.8
2017-01-04T08:08:35.565Z,93.51
2017-01-04T08:09:35.153Z,93.51
2017-01-04T08:10:35.149Z,92.85
2017-01-04T08:11:35.137Z,93.23
2017-01-04T08:12:36.352Z,93.51
2017-01-04T08:13:35.125Z,92.94
2017-01-04T08:14:35.124Z,93.7
2017-01-04T08:15:35.121Z,93.23
2017-01-04T08:16:35.525Z,93.23
2017-01-04T08:17:35.529Z,92.85
2017-01-04T08:18:35.524Z,92.57
2017-01-04T08:19:35.545Z,92.66
2017-01-04T08:20:35.520Z,92.29
2017-01-04T08:21:35.100Z,92.29
2017-01-04T08:22:35.500Z,92.57
2017-01-04T08:23:35.505Z,92.38
2017-01-04T08:24:35.084Z,92.57
2017-01-04T08:25:35.116Z,92
2017-01-04T08:26:35.084Z,92.57
2017-01-04T08:27:35.484Z,92.29
2017-01-04T08:28:35.480Z,92.38
2017-01-04T08:29:35.476Z,92
2017-01-04T08:30:35.476Z,92
2017-01-04T08:31:35.473Z,92.57
2017-01-04T08:32:35.461Z,91.53
2017-01-04T08:33:35.048Z,92
2017-01-04T08:34:35.458Z,91.72
2017-01-04T08:35:35.040Z,91.81
2017-01-04T08:36:35.445Z,91.72
2017-01-04T08:37:35.441Z,91.53
2017-01-04T08:38:35.033Z,91.34
2017-01-04T08:39:35.437Z,91.05
2017-01-04T08:40:35.433Z,91.53
2017-01-04T08:41:35.017Z,90.96
2017-01-04T08:42:35.013Z,91.15
2017-01-04T08:43:35.417Z,91.24
2017-01-04T08:44:35.417Z,90.68
2017-01-04T08:45:35.417Z,90.77
2017-01-04T08:46:35.405Z,90.49
2017-01-04T08:47:35.406Z,90.77
2017-01-04T08:48:35.394Z,90.58
2017-01-04T08:49:34.986Z,89.83
2017-01-04T08:50:35.390Z,90.11
2017-01-04T08:51:35.390Z,89.83
2017-01-04T08:52:35.387Z,89.45
2017-01-04T08:53:35.383Z,89.36
2017-01-04T08:54:35.367Z,89.36
2017-01-04T08:55:34.963Z,89.26
2017-01-04T08:56:35.363Z,89.26
2017-01-04T08:57:35.364Z,89.26
2017-01-04T08:58:35.356Z,88.98
2017-01-04T08:59:35.364Z,88.64
2017-01-04T09:00:35.356Z,88.64
2017-01-04T09:01:35.348Z,88.36
2017-01-04T09:02:35.344Z,88.07
2017-01-04T09:03:35.341Z,88.36
2017-01-04T09:04:35.333Z,88.36
2017-01-04T09:05:35.337Z,87.41
2017-01-04T09:06:35.333Z,87.7
2017-01-04T09:07:35.325Z,87.79
2017-01-04T09:08:35.325Z,87.32
2017-01-04T09:09:35.317Z,87.41
2017-01-04T09:10:35.318Z,87.04
2017-01-04T09:11:35.313Z,86.56
2017-01-04T09:12:35.294Z,86.75
2017-01-04T09:13:34.894Z,86.75
2017-01-04T09:14:35.294Z,86.75
2017-01-04T09:15:35.298Z,86.56
2017-01-04T09:16:35.294Z,86.94
2017-01-04T09:17:34.878Z,86.09
2017-01-04T09:18:35.283Z,86.09
2017-01-04T09:19:35.275Z,86.09
2017-01-04T09:20:35.279Z,85.8
2017-01-04T09:21:34.863Z,85.71
2017-01-04T09:22:35.267Z,85.61
2017-01-04T09:23:35.263Z,85.52
2017-01-04T09:24:34.851Z,85.33
2017-01-04T09:25:35.276Z,84.95
2017-01-04T09:26:35.251Z,84.86
2017-01-04T09:27:35.248Z,84.77
2017-01-04T09:28:35.240Z,84.67
2017-01-04T09:29:35.244Z,84.48
2017-01-04T09:30:35.239Z,84.1
2017-01-04T09:31:35.232Z,84.2
2017-01-04T09:32:35.232Z,83.91
2017-01-04T09:33:35.224Z,83.72
2017-01-04T09:34:34.808Z,83.34
2017-01-04T09:35:35.220Z,83.25
2017-01-04T09:36:35.216Z,82.78
2017-01-04T09:37:34.792Z,83.15
2017-01-04T09:38:35.204Z,82.59
2017-01-04T09:39:35.204Z,82.78
2017-01-04T09:40:34.788Z,82.59
2017-01-04T09:41:35.220Z,82.59
2017-01-04T09:42:35.188Z,82.59
2017-01-04T09:43:34.772Z,82.68
2017-01-04T09:44:35.181Z,82.4
2017-01-04T09:45:35.173Z,82.4
2017-01-04T09:46:35.173Z,82.12
2017-01-04T09:47:35.165Z,82.12
2017-01-04T09:48:35.168Z,81.93
2017-01-04T09:49:34.752Z,82.12
2017-01-04T09:50:35.161Z,82.12
2017-01-04T09:51:35.157Z,82.12
2017-01-04T09:52:35.149Z,81.74
2017-01-04T09:53:35.141Z,81.64
2017-01-04T09:54:34.729Z,81.26
2017-01-04T09:55:35.141Z,81.36
2017-01-04T09:56:35.133Z,81.17
2017-01-04T09:57:34.713Z,81.17
2017-01-04T09:58:35.125Z,81.26
2017-01-04T09:59:34.713Z,81.07
2017-01-04T10:00:35.125Z,81.17
2017-01-04T10:01:34.709Z,81.17
2017-01-04T10:02:35.109Z,80.88
2017-01-04T10:03:35.105Z,80.6
2017-01-04T10:04:35.110Z,81.26
2017-01-04T10:05:35.098Z,80.98
2017-01-04T10:06:34.689Z,80.69
2017-01-04T10:07:35.093Z,80.51
2017-01-04T10:08:35.093Z,80.41
2017-01-04T10:09:35.085Z,80.79
2017-01-04T10:10:35.077Z,80.41
2017-01-04T10:11:35.081Z,80.79
2017-01-04T10:12:35.077Z,80.98
2017-01-04T10:13:35.065Z,80.88
2017-01-04T10:14:35.065Z,81.07
2017-01-04T10:15:35.065Z,80.51
2017-01-04T10:16:35.065Z,80.32
2017-01-04T10:17:35.058Z,80.22
2017-01-04T10:18:35.053Z,80.41
2017-01-04T10:19:34.641Z,80.22
2017-01-04T10:20:35.046Z,80.04
2017-01-04T10:21:35.041Z,80.04
2017-01-04T10:22:35.034Z,79.47
2017-01-04T10:23:35.038Z,79.75
2017-01-04T10:24:35.026Z,79.66
2017-01-04T10:25:35.026Z,79.56
2017-01-04T10:26:35.026Z,79.66
2017-01-04T10:27:35.018Z,79.66
2017-01-04T10:28:34.606Z,79.66
2017-01-04T10:29:35.014Z,79.75
2017-01-04T10:30:35.002Z,79.85
2017-01-04T10:31:35.002Z,79.75
2017-01-04T10:32:34.999Z,79.94
2017-01-04T10:33:34.991Z,79.85
2017-01-04T10:34:34.987Z,79.18
2017-01-04T10:35:34.987Z,79.56
2017-01-04T10:36:34.982Z,79.56
2017-01-04T10:37:34.978Z,79.37
2017-01-04T10:38:34.571Z,79.37
2017-01-04T10:39:34.974Z,79.47
2017-01-04T10:40:34.967Z,79.56
2017-01-04T10:41:34.970Z,79.56
2017-01-04T10:42:34.555Z,79.37
2017-01-04T10:43:34.959Z,79.37
2017-01-04T10:44:34.958Z,79.56
2017-01-04T10:45:34.951Z,79.66
2017-01-04T10:46:34.950Z,79.66
2017-01-04T10:47:34.947Z,79.66
2017-01-04T10:48:34.939Z,79.56
2017-01-04T10:49:34.935Z,79.56
2017-01-04T10:50:34.927Z,79.66
2017-01-04T10:51:34.539Z,79.56
2017-01-04T10:52:34.923Z,79.56
2017-01-04T10:53:34.514Z,79.66
2017-01-04T10:54:34.915Z,79.56
2017-01-04T10:55:34.915Z,79.56
2017-01-04T10:56:34.911Z,79.28
2017-01-04T10:57:34.491Z,79.75
2017-01-04T10:58:34.903Z,79.56
2017-01-04T10:59:34.487Z,79.56
2017-01-04T11:00:34.899Z,79.66
2017-01-04T11:01:34.479Z,79.66
2017-01-04T11:02:34.891Z,79.09
2017-01-04T11:03:34.475Z,79.09
2017-01-04T11:04:34.879Z,79.09
2017-01-04T11:05:34.876Z,79.18
2017-01-04T11:06:34.871Z,79.37
2017-01-04T11:07:34.459Z,79.28
2017-01-04T11:08:34.867Z,78.8
2017-01-04T11:09:34.451Z,79.28
2017-01-04T11:10:34.860Z,78.9
2017-01-04T11:11:34.852Z,79.18
2017-01-04T11:12:34.851Z,79.47
2017-01-04T11:13:34.839Z,79.09
2017-01-04T11:14:34.848Z,79.09
2017-01-04T11:15:34.427Z,78.94
2017-01-04T11:16:34.832Z,78.9
2017-01-04T11:17:34.836Z,79.03
2017-01-04T11:18:34.831Z,78.8
2017-01-04T11:19:34.416Z,78.85
2017-01-04T11:20:34.820Z,78.94
2017-01-04T11:21:34.816Z,78.94
2017-01-04T11:22:34.816Z,78.94
2017-01-04T11:23:34.399Z,78.56
2017-01-04T11:24:34.804Z,78.27
2017-01-04T11:25:34.392Z,78.27
2017-01-04T11:26:34.796Z,77.99
2017-01-04T11:27:34.796Z,78.08
2017-01-04T11:28:34.384Z,77.61
2017-01-04T11:29:34.780Z,77.61
2017-01-04T11:30:34.783Z,77.7
2017-01-04T11:31:34.368Z,77.33
2017-01-04T11:32:34.772Z,77.04
2017-01-04T11:33:34.768Z,76.86
2017-01-04T11:34:34.360Z,77.04
2017-01-04T11:35:34.355Z,77.14
2017-01-04T11:36:34.348Z,76.95
2017-01-04T11:37:34.760Z,77.33
2017-01-04T11:38:34.748Z,76.86
2017-01-04T11:39:34.752Z,76.95
2017-01-04T11:40:34.359Z,76.76
2017-01-04T11:41:34.736Z,76.48
2017-01-04T11:42:34.732Z,76.29
2017-01-04T11:43:34.732Z,76.38
2017-01-04T11:44:34.736Z,76
2017-01-04T11:45:34.728Z,75.91
2017-01-04T11:46:34.321Z,75.81
2017-01-04T11:47:34.716Z,75.81
2017-01-04T11:48:34.304Z,75.81
2017-01-04T11:49:34.716Z,76.1
2017-01-04T11:50:34.712Z,76.1
2017-01-04T11:51:34.701Z,75.43
2017-01-04T11:52:34.692Z,75.91
2017-01-04T11:53:34.640Z,75.81
2017-01-04T11:54:34.699Z,75.53
2017-01-04T11:55:34.688Z,75.72
2017-01-04T11:56:34.688Z,75.72
2017-01-04T11:57:34.684Z,75.43
2017-01-04T11:58:34.268Z,75.43
2017-01-04T11:59:34.672Z,75.72
2017-01-04T12:00:34.672Z,75.34
2017-01-04T12:01:34.664Z,75.57
2017-01-04T12:02:34.664Z,75.15
2017-01-04T12:03:34.252Z,75.24
2017-01-04T12:04:34.653Z,74.68
2017-01-04T12:05:34.652Z,74.77
2017-01-04T12:06:34.236Z,75.09
2017-01-04T12:07:34.652Z,75
2017-01-04T12:08:34.644Z,74.33
2017-01-04T12:09:34.640Z,74.24
2017-01-04T12:10:34.637Z,74.52
2017-01-04T12:11:34.637Z,74.43
2017-01-04T12:12:34.633Z,74.15
2017-01-04T12:13:34.625Z,74.62
2017-01-04T12:14:34.629Z,74.05
2017-01-04T12:15:34.617Z,73.86
2017-01-04T12:16:34.209Z,74.33
2017-01-04T12:17:34.618Z,74.15
2017-01-04T12:18:34.609Z,75
2017-01-04T12:19:34.605Z,74.9
2017-01-04T12:20:34.190Z,75.43
2017-01-04T12:21:34.590Z,75.62
2017-01-04T12:22:34.595Z,75.81
2017-01-04T12:23:34.183Z,76.38
2017-01-04T12:24:34.595Z,76.29
2017-01-04T12:25:34.591Z,76.48
2017-01-04T12:26:34.588Z,76.1
2017-01-04T12:27:34.584Z,76.1
2017-01-04T12:28:34.604Z,75.91
2017-01-04T12:29:34.577Z,76.04
2017-01-04T12:30:34.573Z,75.76
2017-01-04T12:31:34.565Z,75.95
2017-01-04T12:32:34.565Z,75.57
2017-01-04T12:33:34.558Z,75.66
2017-01-04T12:34:34.558Z,75.57
2017-01-04T12:35:34.558Z,75.47
2017-01-04T12:36:34.146Z,75.76
2017-01-04T12:37:34.547Z,75.57
2017-01-04T12:38:34.547Z,76.1
2017-01-04T12:39:34.543Z,76.04
2017-01-04T12:40:34.127Z,76.04
2017-01-04T12:41:34.128Z,76.57
2017-01-04T12:42:34.120Z,76.57
2017-01-04T12:43:34.532Z,76.86
2017-01-04T12:44:34.528Z,76.95
2017-01-04T12:45:34.109Z,76.76
2017-01-04T12:46:34.513Z,77.61
2017-01-04T12:47:34.513Z,77.51
2017-01-04T12:48:34.665Z,77.33
2017-01-04T12:49:34.509Z,77.14
2017-01-04T12:50:34.093Z,77.23
2017-01-04T12:51:34.535Z,77.8
2017-01-04T12:52:34.498Z,77.94
2017-01-04T12:53:34.490Z,77.89
2017-01-04T12:54:34.490Z,77.99
2017-01-04T12:55:34.078Z,77.65
2017-01-04T12:56:34.071Z,77.7